G3 VNLK-VNLK
Flight info
| Callsign | G3 |
|---|---|
| Flight time | 0h 2m |
| Altitude | 21000 |
| Route | IGRIS DCT KIMTI DCT VNPL |
| Aircraft | RJ85/M-SDFGIRWY/LB1 |
Departure
| Time | 2025-11-02 23:47 |
|---|---|
| Airport | Tenzing-Hillary Airport (VNLK) |
Arrival
| Time | 2025-11-02 23:49 |
|---|---|
| Airport | Tenzing-Hillary Airport (VNLK) |
| Time | Latitude | Longitude | Altitude | Speed | Heading |
|---|---|---|---|---|---|
| 2025-11-02 23:34 | 27.68772 | 86.73191 | 9369 ft | 0 kts | 237° |
| 2025-11-02 23:39 | 27.68769 | 86.73171 | 9365 ft | 4 kts | 302° |
| 2025-11-02 23:39 | 27.68790 | 86.73181 | 9365 ft | 1 kts | 47° |
| 2025-11-02 23:39 | 27.68799 | 86.73179 | 9365 ft | 2 kts | 297° |
| 2025-11-02 23:40 | 27.68797 | 86.73174 | 9365 ft | 0 kts | 230° |
| 2025-11-02 23:41 | 27.68688 | 86.72971 | 9279 ft | 83 kts | 240° |
| 2025-11-02 23:41 | 27.67530 | 86.71319 | 9451 ft | 157 kts | 204° |
| 2025-11-02 23:42 | 27.65196 | 86.71000 | 9278 ft | 150 kts | 182° |
| 2025-11-02 23:42 | 27.65819 | 86.69514 | 9656 ft | 135 kts | 31° |
| 2025-11-02 23:43 | 27.67244 | 86.70634 | 9201 ft | 120 kts | 36° |
| 2025-11-02 23:43 | 27.67803 | 86.71275 | 9105 ft | 111 kts | 52° |
| 2025-11-02 23:44 | 27.68761 | 86.73103 | 9357 ft | 23 kts | 59° |
| 2025-11-02 23:44 | 27.68795 | 86.73173 | 9365 ft | 0 kts | 245° |
| 2025-11-02 23:45 | 27.68649 | 86.72894 | 9230 ft | 98 kts | 239° |
| 2025-11-02 23:45 | 27.67332 | 86.71386 | 9213 ft | 165 kts | 186° |
| 2025-11-02 23:46 | 27.66644 | 86.69909 | 10068 ft | 134 kts | 318° |
| 2025-11-02 23:46 | 27.68074 | 86.68828 | 10925 ft | 139 kts | 287° |
| 2025-11-02 23:47 | 27.67716 | 86.67863 | 11285 ft | 153 kts | 209° |
| 2025-11-02 23:47 | 27.65833 | 86.69144 | 10027 ft | 167 kts | 156° |
| 2025-11-02 23:48 | 27.67015 | 86.70879 | 9549 ft | 146 kts | 8° |
| 2025-11-02 23:48 | 27.68255 | 86.72104 | 9229 ft | 117 kts | 59° |
| 2025-11-02 23:49 | 27.68800 | 86.73179 | 9362 ft | 0 kts | 60° |
| 2025-11-02 23:50 | 27.68801 | 86.73181 | 9362 ft | 1 kts | 77° |
| 2025-11-02 23:50 | 27.68796 | 86.73188 | 9363 ft | 0 kts | 131° |
| 2025-11-02 23:51 | 27.68800 | 86.73182 | 9362 ft | 1 kts | 180° |
| 2025-11-02 23:52 | 27.68797 | 86.73178 | 9362 ft | 0 kts | 243° |
| 2025-11-02 23:52 | 27.68755 | 86.73097 | 9355 ft | 49 kts | 238° |
| 2025-11-02 23:53 | 27.67879 | 86.71408 | 9727 ft | 144 kts | 243° |
| 2025-11-02 23:53 | 27.66974 | 86.69351 | 11172 ft | 145 kts | 245° |
| 2025-11-02 23:53 | 27.66528 | 86.68335 | 11781 ft | 144 kts | 245° |
| 2025-11-02 23:54 | 27.65599 | 86.66334 | 13186 ft | 142 kts | 243° |
| 2025-11-02 23:54 | 27.64180 | 86.64776 | 13339 ft | 174 kts | 188° |
| 2025-11-02 23:55 | 27.63314 | 86.62860 | 13582 ft | 149 kts | 311° |
| 2025-11-02 23:56 | 27.65239 | 86.64574 | 12958 ft | 141 kts | 69° |
| 2025-11-02 23:56 | 27.65877 | 86.66457 | 12555 ft | 123 kts | 63° |
| 2025-11-02 23:56 | 27.66255 | 86.67359 | 12175 ft | 129 kts | 63° |
| 2025-11-02 23:57 | 27.66956 | 86.69227 | 11456 ft | 123 kts | 65° |
| 2025-11-02 23:57 | 27.67662 | 86.70875 | 10916 ft | 114 kts | 57° |
| 2025-11-02 23:58 | 27.68548 | 86.72361 | 10886 ft | 123 kts | 31° |
| 2025-11-02 23:58 | 27.69940 | 86.71698 | 11677 ft | 145 kts | 282° |
| 2025-11-02 23:59 | 27.69158 | 86.69845 | 11617 ft | 142 kts | 210° |
| 2025-11-03 00:00 | 27.66059 | 86.70012 | 9861 ft | 162 kts | 200° |
| 2025-11-03 00:00 | 27.64655 | 86.70930 | 9697 ft | 117 kts | 74° |
| 2025-11-03 00:00 | 27.65271 | 86.71517 | 9955 ft | 139 kts | 2° |
| 2025-11-03 00:01 | 27.67897 | 86.71555 | 9425 ft | 106 kts | 29° |
| 2025-11-03 00:01 | 27.68356 | 86.72301 | 9197 ft | 116 kts | 64° |
| 2025-11-03 00:02 | 27.68747 | 86.73075 | 9341 ft | 4 kts | 62° |
| 2025-11-03 00:02 | 27.68779 | 86.73158 | 9360 ft | 3 kts | 129° |
| 2025-11-03 00:03 | 27.68782 | 86.73143 | 9360 ft | 3 kts | 247° |
| 2025-11-03 00:03 | 27.68788 | 86.73162 | 9361 ft | 3 kts | 248° |
| 2025-11-03 00:04 | 27.68685 | 86.72958 | 9262 ft | 87 kts | 238° |
| 2025-11-03 00:05 | 27.68769 | 86.70267 | 9990 ft | 109 kts | 321° |
| 2025-11-03 00:05 | 27.69536 | 86.70166 | 10275 ft | 135 kts | 14° |
| 2025-11-03 00:05 | 27.71353 | 86.70504 | 10567 ft | 137 kts | 45° |
| 2025-11-03 00:06 | 27.69307 | 86.70802 | 9366 ft | 143 kts | 204° |
| 2025-11-03 00:06 | 27.68485 | 86.71152 | 8973 ft | 142 kts | 118° |
| 2025-11-03 00:07 | 27.68519 | 86.73070 | 9498 ft | 123 kts | 96° |
| 2025-11-03 00:08 | 27.66474 | 86.72258 | 10139 ft | 154 kts | 229° |
| 2025-11-03 00:08 | 27.65451 | 86.70788 | 10119 ft | 129 kts | 325° |
| 2025-11-03 00:09 | 27.67115 | 86.71058 | 9736 ft | 108 kts | 22° |
| 2025-11-03 00:09 | 27.68230 | 86.72056 | 9191 ft | 104 kts | 59° |
| 2025-11-03 00:10 | 27.68799 | 86.73187 | 9363 ft | 0 kts | 62° |